Time;durP1;ratioP1;P1;durP2;ratioP2;P2;SDS_P1;SDS_P2;PMS_P1;PMS_P2;Temp;Humidity;BMP_temperature;BMP_pressure;BME280_temperature;BME280_humidity;BME280_pressure;Samples;Min_cycle;Max_cycle;Signal;HPM_P1;HPM_P2
2021/01/22 00:03:32;;;;;;;2.78;1.48;;;;;;;9.54;100.00;97916.94;10539691;28;20076;-71
2021/01/22 00:08:34;;;;;;;5.00;1.50;;;;;;;9.37;100.00;97898.13;10534594;28;20404;-71
2021/01/22 00:13:35;;;;;;;3.22;1.20;;;;;;;9.59;100.00;97909.50;10495594;28;20094;-71
2021/01/22 00:18:36;;;;;;;3.00;1.30;;;;;;;9.43;100.00;97894.16;10523164;28;20051;-71
2021/01/22 00:23:38;;;;;;;3.10;1.42;;;;;;;9.54;100.00;97909.84;10534109;28;20040;-71
2021/01/22 00:28:39;;;;;;;2.03;1.08;;;;;;;9.78;100.00;97909.63;10524427;28;20049;-71
2021/01/22 00:33:41;;;;;;;4.88;1.52;;;;;;;9.80;100.00;97902.44;10498789;28;20041;-71
2021/01/22 00:38:42;;;;;;;6.95;1.83;;;;;;;9.96;100.00;97889.66;10504476;28;20061;-71
2021/01/22 00:43:43;;;;;;;6.63;1.70;;;;;;;9.94;100.00;97881.06;10502726;28;20098;-71
2021/01/22 00:48:44;;;;;;;4.65;1.40;;;;;;;10.08;100.00;97883.34;10532567;28;20040;-71
2021/01/22 00:53:45;;;;;;;8.00;2.15;;;;;;;9.88;100.00;97853.47;10544204;28;20078;-71
2021/01/22 00:58:46;;;;;;;3.30;1.65;;;;;;;9.82;100.00;97861.91;10545316;28;20040;-71
2021/01/22 01:04:09;;;;;;;5.70;1.50;;;;;;;9.73;100.00;97843.44;10530180;28;20091;-72
2021/01/22 01:09:45;;;;;;;5.07;1.40;;;;;;;9.72;100.00;97839.97;10500913;28;20076;-71
2021/01/22 01:15:18;;;;;;;4.65;1.40;;;;;;;9.80;100.00;97863.00;10503376;28;20072;-71
2021/01/22 01:20:19;;;;;;;4.45;1.33;;;;;;;9.63;100.00;97839.91;10543102;28;20089;-71
2021/01/22 01:25:20;;;;;;;3.78;1.25;;;;;;;9.46;100.00;97820.31;10526023;28;20059;-71
2021/01/22 01:30:22;;;;;;;4.28;1.70;;;;;;;9.53;100.00;97842.53;10542942;28;20051;-71
2021/01/22 01:35:23;;;;;;;3.30;1.38;;;;;;;9.50;100.00;97848.84;10543849;28;20063;-71
2021/01/22 01:40:25;;;;;;;4.05;1.30;;;;;;;9.39;100.00;97846.28;10542304;28;20044;-71
2021/01/22 01:45:26;;;;;;;8.50;1.98;;;;;;;8.83;100.00;97929.72;10544927;28;20044;-72
2021/01/22 01:50:27;;;;;;;2.10;1.20;;;;;;;7.32;100.00;97869.78;10545865;28;20064;-71
2021/01/22 01:55:28;;;;;;;2.00;1.35;;;;;;;6.97;100.00;97848.81;10541324;28;20400;-71
2021/01/22 02:00:31;;;;;;;2.78;1.67;;;;;;;6.72;100.00;97849.78;10542713;28;20510;-72
2021/01/22 02:05:32;;;;;;;5.20;2.25;;;;;;;6.59;100.00;97853.41;10531937;28;20055;-71
2021/01/22 02:10:33;;;;;;;4.63;2.50;;;;;;;6.47;100.00;97902.19;10482798;28;20052;-71
2021/01/22 02:15:35;;;;;;;4.78;3.30;;;;;;;6.31;100.00;97902.44;10503566;28;20408;-72
2021/01/22 02:20:51;;;;;;;4.57;3.58;;;;;;;6.12;100.00;97935.19;10542123;28;20049;-71
2021/01/22 02:26:12;;;;;;;7.50;5.10;;;;;;;5.81;100.00;97968.59;10539719;28;20047;-72
2021/01/22 02:31:17;;;;;;;4.65;4.15;;;;;;;5.33;100.00;97989.19;10517041;28;20051;-71
2021/01/22 02:36:21;;;;;;;7.47;6.20;;;;;;;5.13;100.00;98035.75;10507359;28;20040;-71
2021/01/22 02:41:22;;;;;;;3.22;2.53;;;;;;;4.62;100.00;98038.06;10538193;28;20055;-71
2021/01/22 02:46:24;;;;;;;5.10;3.35;;;;;;;4.42;100.00;98054.09;10532156;28;20044;-71
2021/01/22 02:51:25;;;;;;;3.25;2.33;;;;;;;4.29;100.00;98072.22;10519001;28;20491;-71
2021/01/22 02:56:37;;;;;;;5.55;4.15;;;;;;;4.19;100.00;98089.31;10540826;28;20047;-71
2021/01/22 03:02:15;;;;;;;10.73;9.32;;;;;;;4.35;100.00;98126.59;10499554;28;20055;-71
2021/01/22 03:07:22;;;;;;;4.78;4.28;;;;;;;4.29;100.00;98142.59;10508096;28;20040;-71
2021/01/22 03:12:25;;;;;;;5.95;5.45;;;;;;;4.15;100.00;98143.41;10540056;28;20399;-71
2021/01/22 03:17:26;;;;;;;7.05;6.45;;;;;;;4.07;100.00;98166.44;10522601;28;20040;-71
2021/01/22 03:22:28;;;;;;;5.82;4.97;;;;;;;3.97;100.00;98193.94;10499131;28;20052;-71
2021/01/22 03:27:29;;;;;;;6.47;5.88;;;;;;;3.89;100.00;98192.69;10533724;28;20048;-71
2021/01/22 03:32:30;;;;;;;6.63;6.03;;;;;;;3.90;100.00;98210.84;10539589;28;20376;-71
2021/01/22 03:37:31;;;;;;;7.28;6.63;;;;;;;3.90;100.00;98218.66;10521920;28;20488;-72
2021/01/22 03:42:32;;;;;;;6.57;5.97;;;;;;;3.98;100.00;98232.09;10537867;28;20048;-71
2021/01/22 03:47:34;;;;;;;7.50;6.80;;;;;;;4.00;100.00;98258.06;10521363;28;20041;-71
2021/01/22 03:52:37;;;;;;;9.48;8.50;;;;;;;3.92;100.00;98261.09;10512464;28;20042;-71
2021/01/22 03:57:38;;;;;;;6.82;6.18;;;;;;;3.95;100.00;98273.06;10500692;28;20036;-71
2021/01/22 04:02:39;;;;;;;7.70;6.90;;;;;;;3.95;100.00;98280.91;10496444;28;20492;-71
2021/01/22 04:07:40;;;;;;;9.75;7.90;;;;;;;4.02;100.00;98296.09;10512508;28;20063;-71
2021/01/22 04:12:41;;;;;;;6.45;4.68;;;;;;;3.96;100.00;98298.22;10542139;28;20075;-72
2021/01/22 04:17:43;;;;;;;5.20;4.47;;;;;;;3.85;100.00;98309.19;10528311;28;20054;-71
2021/01/22 04:22:44;;;;;;;5.50;4.90;;;;;;;3.90;100.00;98316.78;10546610;28;20032;-72
2021/01/22 04:27:46;;;;;;;5.05;3.72;;;;;;;3.93;100.00;98329.66;10512886;28;20048;-71
2021/01/22 04:32:47;;;;;;;4.78;3.75;;;;;;;3.93;100.00;98322.69;10546966;28;20044;-71
2021/01/22 04:37:48;;;;;;;5.15;4.00;;;;;;;3.83;100.00;98313.69;10546409;28;20083;-71
2021/01/22 04:42:50;;;;;;;4.40;3.50;;;;;;;3.93;100.00;98342.69;10544526;28;20051;-72
2021/01/22 04:47:51;;;;;;;4.75;3.88;;;;;;;3.92;100.00;98344.44;10525048;28;20059;-71
2021/01/22 04:52:57;;;;;;;6.65;4.43;;;;;;;3.96;100.00;98353.75;10502993;28;20391;-71
2021/01/22 04:58:02;;;;;;;7.35;5.55;;;;;;;3.95;100.00;98365.09;10501865;28;20044;-71
2021/01/22 05:03:03;;;;;;;6.53;5.10;;;;;;;3.98;100.00;98358.88;10503483;28;20036;-71
2021/01/22 05:08:05;;;;;;;7.20;5.28;;;;;;;3.94;100.00;98360.81;10523971;28;20058;-71
2021/01/22 05:13:08;;;;;;;7.28;6.15;;;;;;;3.94;100.00;98355.59;10523644;28;20097;-71
2021/01/22 05:18:10;;;;;;;7.82;5.88;;;;;;;3.97;100.00;98371.06;10542631;28;20052;-71
2021/01/22 05:23:11;;;;;;;9.90;6.57;;;;;;;3.91;100.00;98355.78;10541899;28;20067;-71
2021/01/22 05:28:12;;;;;;;8.95;6.75;;;;;;;3.99;100.00;98371.84;10513984;28;20400;-71
2021/01/22 05:33:16;;;;;;;10.07;6.32;;;;;;;4.04;100.00;98384.59;10543711;28;20388;-71
2021/01/22 05:38:17;;;;;;;7.82;6.07;;;;;;;4.09;100.00;98396.47;10544431;28;20505;-71
2021/01/22 05:43:33;;;;;;;9.80;6.57;;;;;;;3.94;100.00;98386.84;10543687;28;20082;-72
2021/01/22 05:48:34;;;;;;;;;;;;;;;3.98;100.00;98384.94;10540261;28;20127;-71
2021/01/22 05:53:44;;;;;;;9.18;6.00;;;;;;;3.97;100.00;98376.28;10508152;28;19920;-71
2021/01/22 05:58:47;;;;;;;8.30;5.95;;;;;;;4.05;100.00;98397.56;10512490;28;20066;-71
2021/01/22 06:03:50;;;;;;;7.85;6.53;;;;;;;3.97;100.00;98385.84;10539463;28;20110;-70
2021/01/22 06:08:59;;;;;;;7.75;5.35;;;;;;;3.95;100.00;98383.31;10538149;28;20043;-71
2021/01/22 06:14:05;;;;;;;8.27;6.25;;;;;;;3.95;100.00;98377.28;10538214;28;20052;-70
2021/01/22 06:19:10;;;;;;;9.70;5.68;;;;;;;4.17;100.00;98404.72;10538696;28;20395;-70
2021/01/22 06:24:12;;;;;;;8.95;6.13;;;;;;;4.28;100.00;98424.97;10537746;28;20040;-70
2021/01/22 06:29:14;;;;;;;9.05;6.82;;;;;;;4.27;100.00;98425.09;10538508;28;20044;-70
2021/01/22 06:34:16;;;;;;;9.02;6.40;;;;;;;4.34;100.00;98439.47;10540715;28;20047;-69
2021/01/22 06:39:18;;;;;;;8.98;6.15;;;;;;;4.29;100.00;98431.03;10535162;28;20048;-70
2021/01/22 06:44:19;;;;;;;9.65;5.95;;;;;;;4.29;100.00;98444.91;10523422;28;20040;-70
2021/01/22 06:49:31;;;;;;;8.35;5.93;;;;;;;4.33;100.00;98453.41;10509530;28;20044;-69
2021/01/22 06:54:32;;;;;;;7.68;5.50;;;;;;;4.41;100.00;98459.91;10539358;28;20054;-70
2021/01/22 06:59:40;;;;;;;7.68;5.95;;;;;;;4.42;100.00;98474.63;10539390;28;20488;-71
2021/01/22 07:04:41;;;;;;;10.05;5.43;;;;;;;4.50;100.00;98497.69;10536921;28;20475;-69
2021/01/22 07:09:43;;;;;;;7.22;5.10;;;;;;;4.46;100.00;98501.34;10538796;28;20071;-69
2021/01/22 07:14:46;;;;;;;7.53;5.38;;;;;;;4.52;100.00;98512.28;10537963;28;20039;-70
2021/01/22 07:20:00;;;;;;;6.35;5.20;;;;;;;4.51;100.00;98508.03;10501229;28;20041;-71
2021/01/22 07:25:04;;;;;;;10.10;5.97;;;;;;;4.48;100.00;98500.38;10496414;28;20047;-70
2021/01/22 07:30:13;;;;;;;7.65;5.22;;;;;;;4.58;100.00;98513.75;10524350;28;20123;-71
2021/01/22 07:35:24;;;;;;;10.38;6.28;;;;;;;4.41;100.00;98511.19;10539578;28;20503;-71
2021/01/22 07:40:26;;;;;;;8.90;6.13;;;;;;;4.29;100.00;98507.47;10519348;28;20050;-71
2021/01/22 07:45:29;;;;;;;8.45;6.03;;;;;;;4.18;100.00;98502.81;10503591;28;20408;-71
2021/01/22 07:50:31;;;;;;;7.82;5.30;;;;;;;4.25;100.00;98513.78;10525915;28;20037;-71
2021/01/22 07:55:33;;;;;;;8.85;6.07;;;;;;;4.21;100.00;98522.66;10503523;28;20048;-72
2021/01/22 08:00:38;;;;;;;11.23;6.25;;;;;;;4.20;100.00;98528.78;10504135;28;20479;-72
2021/01/22 08:05:40;;;;;;;;;;;;;;;4.17;100.00;98528.97;10504766;28;20044;-71
2021/01/22 08:10:41;;;;;;;12.38;6.00;;;;;;;4.04;100.00;98509.66;10504154;28;19943;-71
2021/01/22 08:15:44;;;;;;;9.15;5.57;;;;;;;4.13;100.00;98530.88;10487861;28;20050;-73
2021/01/22 08:20:50;;;;;;;7.78;5.47;;;;;;;4.27;100.00;98556.22;10532543;28;20044;-75
2021/01/22 08:25:58;;;;;;;10.35;5.95;;;;;;;4.24;100.00;98553.78;10523172;28;20115;-72
2021/01/22 08:31:03;;;;;;;9.77;5.30;;;;;;;4.33;100.00;98571.56;10543055;28;20032;-72
2021/01/22 08:36:06;;;;;;;10.25;5.55;;;;;;;4.37;100.00;98582.66;10530180;28;20056;-71
2021/01/22 08:41:07;;;;;;;8.70;5.15;;;;;;;4.74;100.00;98620.72;10523058;28;20044;-70
2021/01/22 08:46:11;;;;;;;7.97;5.40;;;;;;;4.81;100.00;98627.28;10514644;28;20043;-71
2021/01/22 08:51:13;;;;;;;9.45;4.97;;;;;;;4.89;100.00;98628.56;10543620;28;20052;-71
2021/01/22 08:56:17;;;;;;;10.93;5.18;;;;;;;4.93;100.00;98640.53;10543622;28;20487;-71
2021/01/22 09:01:18;;;;;;;8.93;5.50;;;;;;;4.90;100.00;98640.69;10543448;28;20055;-72
2021/01/22 09:06:19;;;;;;;6.45;4.45;;;;;;;4.89;100.00;98652.03;10543665;28;20052;-71
2021/01/22 09:11:37;;;;;;;8.00;4.38;;;;;;;5.03;100.00;98661.75;10544736;28;20052;-72
2021/01/22 09:16:46;;;;;;;8.45;5.10;;;;;;;5.33;100.00;98685.38;10543156;28;20042;-72
2021/01/22 09:21:56;;;;;;;7.93;4.70;;;;;;;5.41;100.00;98698.03;10543931;28;20123;-71
2021/01/22 09:26:58;;;;;;;11.50;5.70;;;;;;;5.78;100.00;98710.75;10540082;28;20036;-71
2021/01/22 09:32:06;;;;;;;7.97;5.25;;;;;;;5.89;100.00;98724.13;10531528;28;20052;-72
2021/01/22 09:37:08;;;;;;;8.02;5.18;;;;;;;6.03;100.00;98729.41;10514556;28;20545;-71
2021/01/22 09:42:21;;;;;;;8.15;5.10;;;;;;;5.90;100.00;98732.81;10500006;28;20560;-71
2021/01/22 09:47:22;;;;;;;7.82;4.82;;;;;;;6.46;100.00;98774.06;10517645;28;20040;-71
2021/01/22 09:52:23;;;;;;;13.30;5.60;;;;;;;6.58;100.00;98793.47;10542423;28;20051;-71
2021/01/22 09:57:25;;;;;;;9.48;5.65;;;;;;;6.41;100.00;98763.88;10542140;28;20475;-72
2021/01/22 10:02:26;;;;;;;8.07;5.57;;;;;;;6.26;100.00;98754.28;10516751;28;20515;-71
2021/01/22 10:07:27;;;;;;;9.93;5.30;;;;;;;6.17;100.00;98759.19;10530234;28;20141;-71
2021/01/22 10:12:28;;;;;;;11.65;5.55;;;;;;;6.63;100.00;98788.81;10539971;28;20028;-71
2021/01/22 10:17:29;;;;;;;7.57;4.80;;;;;;;6.62;100.00;98795.81;10540915;28;20054;-72
2021/01/22 10:22:31;;;;;;;7.57;5.70;;;;;;;6.89;100.00;98800.38;10537900;28;20059;-71
2021/01/22 10:27:32;;;;;;;8.70;5.15;;;;;;;6.74;100.00;98787.25;10513863;28;20048;-72
2021/01/22 10:32:33;;;;;;;6.47;4.95;;;;;;;6.59;100.00;98787.31;10508281;28;20400;-72
2021/01/22 10:37:35;;;;;;;9.15;5.40;;;;;;;6.90;100.00;98783.75;10522492;28;20056;-72
2021/01/22 10:42:36;;;;;;;13.07;6.25;;;;;;;6.81;100.00;98769.44;10539392;28;20051;-72
2021/01/22 10:47:37;;;;;;;9.77;5.80;;;;;;;6.77;100.00;98773.16;10527665;28;20029;-73
2021/01/22 10:52:39;;;;;;;9.15;5.20;;;;;;;7.03;100.00;98796.03;10536659;28;20044;-72
2021/01/22 10:57:40;;;;;;;8.70;5.55;;;;;;;6.63;100.00;98758.25;10541235;28;20483;-71
2021/01/22 11:02:41;;;;;;;9.75;5.47;;;;;;;6.38;100.00;98752.72;10520805;28;20044;-71
2021/01/22 11:07:42;;;;;;;9.93;5.68;;;;;;;6.36;100.00;98746.78;10541966;28;20040;-70
2021/01/22 11:12:44;;;;;;;12.68;5.63;;;;;;;6.38;100.00;98758.81;10535680;28;20044;-70
2021/01/22 11:17:45;;;;;;;7.55;5.25;;;;;;;6.55;100.00;98773.53;10502142;28;20060;-70
2021/01/22 11:22:46;;;;;;;7.55;5.80;;;;;;;6.54;100.00;98776.25;10527297;28;20048;-70
2021/01/22 11:27:48;;;;;;;9.05;5.88;;;;;;;6.45;100.00;98760.13;10502661;28;20033;-71
2021/01/22 11:32:49;;;;;;;6.80;4.90;;;;;;;6.73;100.00;98782.13;10495229;28;20503;-70
2021/01/22 11:37:52;;;;;;;12.60;5.95;;;;;;;6.89;100.00;98792.53;10497939;28;20095;-71
2021/01/22 11:42:53;;;;;;;6.63;4.55;;;;;;;6.59;100.00;98771.63;10498459;28;20044;-70
2021/01/22 11:47:54;;;;;;;7.15;6.30;;;;;;;6.57;100.00;98784.78;10519144;28;20040;-71
2021/01/22 11:52:56;;;;;;;7.22;3.92;;;;;;;6.70;100.00;98790.13;10538978;28;20050;-70
2021/01/22 11:58:11;;;;;;;8.70;5.20;;;;;;;6.87;100.00;98800.47;10535165;28;20040;-70
2021/01/22 12:03:15;;;;;;;7.05;4.80;;;;;;;6.76;100.00;98787.19;10537343;28;20430;-72
2021/01/22 12:08:16;;;;;;;8.25;4.57;;;;;;;6.85;100.00;98776.19;10538201;28;20044;-70
2021/01/22 12:13:17;;;;;;;9.45;5.50;;;;;;;6.66;100.00;98778.16;10539330;28;20094;-71
2021/01/22 12:18:18;;;;;;;9.27;5.60;;;;;;;6.85;100.00;98790.13;10538103;28;20044;-71
2021/01/22 12:23:20;;;;;;;6.40;4.75;;;;;;;7.01;100.00;98784.81;10538140;28;20040;-72
2021/01/22 12:28:21;;;;;;;8.18;5.30;;;;;;;6.93;100.00;98770.50;10538156;28;20040;-71
2021/01/22 12:33:22;;;;;;;9.13;4.68;;;;;;;6.82;100.00;98760.66;10546505;28;20036;-71
2021/01/22 12:38:24;;;;;;;7.10;4.28;;;;;;;6.86;100.00;98764.78;10543805;28;20059;-72
2021/01/22 12:43:25;;;;;;;9.85;5.50;;;;;;;6.74;100.00;98752.41;10547796;28;20480;-72
2021/01/22 12:48:27;;;;;;;6.65;4.60;;;;;;;6.62;100.00;98763.56;10545878;28;20052;-72
2021/01/22 12:53:28;;;;;;;8.30;4.95;;;;;;;6.66;100.00;98757.25;10547138;28;20047;-71
2021/01/22 12:58:30;;;;;;;7.72;5.55;;;;;;;6.63;100.00;98763.47;10543210;28;20078;-72
2021/01/22 13:03:31;;;;;;;8.75;4.95;;;;;;;7.00;100.00;98780.50;10544129;28;20056;-72
2021/01/22 13:08:33;;;;;;;6.30;3.97;;;;;;;6.80;99.68;98762.50;10527462;28;20043;-72
2021/01/22 13:13:36;;;;;;;5.82;3.63;;;;;;;6.66;96.73;98762.47;10544701;28;20048;-72
2021/01/22 13:18:37;;;;;;;5.35;3.70;;;;;;;6.33;96.52;98732.09;10540925;28;20041;-72
2021/01/22 13:23:43;;;;;;;6.65;3.90;;;;;;;6.43;97.38;98748.94;10511608;28;20051;-72
2021/01/22 13:28:44;;;;;;;6.07;3.60;;;;;;;6.28;97.77;98736.72;10543092;28;20096;-72
2021/01/22 13:33:46;;;;;;;5.20;3.33;;;;;;;6.19;97.46;98739.03;10544501;28;20044;-72
2021/01/22 13:39:03;;;;;;;6.00;3.60;;;;;;;6.15;97.04;98733.13;10545081;28;20417;-72
2021/01/22 13:44:09;;;;;;;7.13;3.83;;;;;;;6.18;97.10;98753.88;10542974;28;20460;-73
2021/01/22 13:49:11;;;;;;;7.00;3.33;;;;;;;6.33;95.02;98742.56;10543388;28;20048;-72
2021/01/22 13:54:12;;;;;;;8.18;4.97;;;;;;;6.29;94.53;98761.94;10544021;28;20067;-72
2021/01/22 13:59:13;;;;;;;12.85;8.85;;;;;;;6.23;95.00;98751.84;10520171;28;20059;-73
2021/01/22 14:04:16;;;;;;;16.05;12.05;;;;;;;6.28;96.21;98767.25;10513879;28;20036;-72
2021/01/22 14:09:17;;;;;;;8.63;5.03;;;;;;;6.44;96.65;98787.22;10506710;28;20033;-72
2021/01/22 14:14:18;;;;;;;6.70;3.20;;;;;;;6.43;91.87;98774.25;10507161;28;20052;-72
2021/01/22 14:19:19;;;;;;;5.20;3.05;;;;;;;6.20;89.54;98772.06;10533408;28;20040;-72
2021/01/22 14:24:20;;;;;;;14.07;9.55;;;;;;;6.06;89.33;98754.56;10542106;28;20044;-72
2021/01/22 14:29:21;;;;;;;148.00;72.22;;;;;;;6.12;90.40;98766.44;10537057;28;20044;-72
2021/01/22 14:34:22;;;;;;;146.30;77.07;;;;;;;6.06;91.78;98771.06;10542258;28;20050;-72
2021/01/22 14:39:24;;;;;;;9.88;5.90;;;;;;;6.16;93.18;98781.88;10531379;28;20052;-72
2021/01/22 14:44:25;;;;;;;6.95;4.65;;;;;;;5.91;91.83;98761.47;10539476;28;20067;-72
2021/01/22 14:49:26;;;;;;;7.43;3.33;;;;;;;5.95;93.05;98777.81;10531259;28;20046;-72
2021/01/22 14:54:27;;;;;;;8.32;3.63;;;;;;;5.84;93.43;98773.16;10534917;28;20040;-73
2021/01/22 14:59:28;;;;;;;15.80;11.10;;;;;;;5.80;94.02;98773.38;10538801;28;20032;-73
2021/01/22 15:04:29;;;;;;;218.18;113.95;;;;;;;5.71;94.84;98769.50;10540944;28;20048;-72
2021/01/22 15:09:32;;;;;;;157.30;80.13;;;;;;;5.62;96.65;98767.38;10515004;28;20496;-72
2021/01/22 15:14:34;;;;;;;22.13;12.27;;;;;;;5.50;98.32;98766.28;10498754;28;20388;-73
2021/01/22 15:19:36;;;;;;;7.70;3.80;;;;;;;5.49;98.80;98764.59;10530353;28;20055;-73
2021/01/22 15:24:37;;;;;;;8.40;3.63;;;;;;;5.38;99.13;98769.53;10539037;28;20040;-71
2021/01/22 15:29:39;;;;;;;5.75;3.85;;;;;;;5.45;99.10;98777.88;10539099;28;20044;-72
2021/01/22 15:34:40;;;;;;;18.42;4.72;;;;;;;5.41;100.00;98781.59;10538309;28;20063;-72
2021/01/22 15:39:41;;;;;;;5.63;3.53;;;;;;;5.39;99.70;98779.06;10537304;28;20056;-71
2021/01/22 15:44:43;;;;;;;7.70;3.50;;;;;;;5.34;99.00;98779.31;10538986;28;20040;-72
2021/01/22 15:49:45;;;;;;;8.65;4.10;;;;;;;5.32;99.27;98770.69;10539951;28;20036;-72
2021/01/22 15:54:46;;;;;;;7.95;3.83;;;;;;;5.08;100.00;98765.91;10509054;28;20415;-72
2021/01/22 15:59:48;;;;;;;15.30;10.02;;;;;;;4.83;100.00;98756.72;10514293;28;20048;-73
2021/01/22 16:04:49;;;;;;;52.35;27.23;;;;;;;4.61;100.00;98760.47;10494923;28;20076;-73
2021/01/22 16:09:50;;;;;;;64.63;34.70;;;;;;;4.43;100.00;98767.44;10510386;28;20043;-73
2021/01/22 16:14:51;;;;;;;126.07;55.53;;;;;;;4.34;100.00;98770.50;10505406;28;20044;-73
2021/01/22 16:19:52;;;;;;;22.33;11.65;;;;;;;4.17;100.00;98771.31;10530247;28;20047;-72
2021/01/22 16:24:54;;;;;;;12.95;7.65;;;;;;;4.08;100.00;98777.81;10542345;28;20037;-73
2021/01/22 16:29:55;;;;;;;11.95;6.43;;;;;;;3.85;100.00;98777.19;10536734;28;20040;-72
2021/01/22 16:47:08;;;;;;;5.80;3.65;;;;;;;3.19;100.00;98794.91;10241970;29;20070;-72
2021/01/22 16:52:09;;;;;;;7.78;4.45;;;;;;;2.99;100.00;98780.16;10258406;29;20055;-72
2021/01/22 16:57:11;;;;;;;8.07;4.28;;;;;;;2.84;100.00;98786.88;10258514;28;20506;-72
2021/01/22 17:02:13;;;;;;;20.88;10.43;;;;;;;3.01;100.00;98814.75;10260000;28;20430;-72
2021/01/22 17:07:14;;;;;;;131.68;58.22;;;;;;;3.08;100.00;98831.81;10281486;28;20066;-72
2021/01/22 17:12:16;;;;;;;118.20;59.00;;;;;;;2.88;100.00;98824.81;10243127;29;20050;-72
2021/01/22 17:17:17;;;;;;;87.40;46.55;;;;;;;2.71;100.00;98816.03;10235549;28;20428;-72
2021/01/22 17:22:18;;;;;;;13.57;6.93;;;;;;;2.72;100.00;98828.13;10244611;28;20055;-71
2021/01/22 17:27:20;;;;;;;10.00;4.47;;;;;;;2.51;100.00;98820.28;10256692;28;20036;-74
2021/01/22 17:32:21;;;;;;;8.52;4.60;;;;;;;2.32;100.00;98808.94;10239745;29;20062;-72
2021/01/22 17:37:22;;;;;;;18.65;9.65;;;;;;;2.29;100.00;98825.50;10239032;28;20109;-74
2021/01/22 17:42:24;;;;;;;9.25;5.85;;;;;;;2.31;100.00;98833.22;10256570;28;20039;-74
2021/01/22 17:47:25;;;;;;;17.60;13.00;;;;;;;2.34;100.00;98845.25;10257067;29;20050;-71
2021/01/22 17:52:27;;;;;;;9.50;6.65;;;;;;;2.19;100.00;98838.88;10256637;29;20051;-73
2021/01/22 17:57:28;;;;;;;23.77;15.80;;;;;;;1.99;100.00;98833.63;10255119;29;20381;-73
2021/01/22 18:02:29;;;;;;;16.45;10.75;;;;;;;1.92;100.00;98840.81;10255989;29;20475;-73
2021/01/22 18:07:39;;;;;;;13.35;9.25;;;;;;;1.95;100.00;98855.41;10263722;28;20043;-73
2021/01/22 18:12:40;;;;;;;16.25;10.95;;;;;;;2.23;100.00;98887.25;10260067;28;20415;-74
2021/01/22 18:17:41;;;;;;;8.45;6.00;;;;;;;2.07;100.00;98892.16;10254857;28;20074;-73
2021/01/22 18:22:42;;;;;;;8.25;5.15;;;;;;;1.75;100.00;98874.34;10255943;29;20074;-73
2021/01/22 18:27:44;;;;;;;9.20;6.43;;;;;;;1.73;100.00;98881.31;10254084;28;20046;-74
2021/01/22 18:32:45;;;;;;;9.50;8.45;;;;;;;1.75;100.00;98879.53;10253550;28;20116;-73
2021/01/22 18:37:46;;;;;;;8.13;4.80;;;;;;;1.71;100.00;98889.16;10255140;28;20094;-73
2021/01/22 18:42:47;;;;;;;6.20;4.80;;;;;;;1.61;100.00;98885.19;10254963;28;20395;-73
2021/01/22 18:47:49;;;;;;;11.60;7.43;;;;;;;1.93;100.00;98915.19;10254057;29;20054;-73
2021/01/22 18:52:50;;;;;;;9.55;7.45;;;;;;;1.99;100.00;98930.56;10253265;28;20106;-74
2021/01/22 18:57:52;;;;;;;29.33;21.25;;;;;;;1.86;100.00;98922.34;10253368;29;20054;-74
2021/01/22 19:02:53;;;;;;;9.43;7.40;;;;;;;2.04;100.00;98936.41;10253573;29;20050;-74
2021/01/22 19:07:54;;;;;;;24.65;15.73;;;;;;;1.90;100.00;98947.31;10263390;28;20502;-73
2021/01/22 19:12:55;;;;;;;8.82;6.90;;;;;;;1.67;100.00;98941.25;10256331;28;20055;-74
2021/01/22 19:17:56;;;;;;;7.68;5.57;;;;;;;1.50;100.00;98924.53;10252869;29;20054;-73
2021/01/22 19:22:58;;;;;;;7.15;5.50;;;;;;;1.42;100.00;98923.09;10236377;28;20055;-73
2021/01/22 19:27:59;;;;;;;8.43;7.15;;;;;;;1.29;100.00;98922.63;10257273;28;20039;-73
2021/01/22 19:33:01;;;;;;;8.70;7.22;;;;;;;1.52;100.00;98937.41;10253212;28;20403;-74
2021/01/22 19:38:03;;;;;;;11.93;7.43;;;;;;;1.75;100.00;98949.63;10266851;28;20055;-73
2021/01/22 19:43:04;;;;;;;8.55;7.47;;;;;;;1.76;100.00;98954.72;10275877;28;20383;-73
2021/01/22 19:48:06;;;;;;;10.82;7.45;;;;;;;1.78;100.00;98972.84;10275932;28;20039;-73
2021/01/22 19:53:07;;;;;;;11.15;7.70;;;;;;;1.89;100.00;98986.31;10246771;28;20048;-73
2021/01/22 19:58:08;;;;;;;11.88;9.23;;;;;;;1.79;100.00;98980.59;10251652;29;20098;-73
2021/01/22 20:03:09;;;;;;;12.10;8.52;;;;;;;1.67;100.00;98981.03;10253219;29;20047;-73
2021/01/22 20:08:11;;;;;;;14.30;10.60;;;;;;;1.73;100.00;98985.16;10263904;28;20046;-73
2021/01/22 20:13:13;;;;;;;18.65;11.77;;;;;;;1.73;100.00;99003.31;10236002;28;20047;-73
2021/01/22 20:18:15;;;;;;;15.10;10.73;;;;;;;1.58;100.00;99003.84;10265697;28;20054;-74
2021/01/22 20:23:16;;;;;;;11.32;8.45;;;;;;;1.71;100.00;99008.56;10240640;28;20045;-73
2021/01/22 20:28:19;;;;;;;12.55;8.60;;;;;;;1.92;100.00;99019.13;10258455;28;20035;-73
2021/01/22 20:33:20;;;;;;;12.88;9.40;;;;;;;1.97;100.00;99028.44;10272836;28;20039;-73
2021/01/22 20:38:23;;;;;;;14.68;10.27;;;;;;;2.13;100.00;99039.13;10249433;28;20059;-74
2021/01/22 20:43:24;;;;;;;13.77;10.38;;;;;;;2.13;100.00;99049.53;10264957;28;20039;-73
2021/01/22 20:48:26;;;;;;;15.45;10.98;;;;;;;2.09;100.00;99034.97;10261576;28;20491;-73
2021/01/22 20:53:28;;;;;;;14.75;10.02;;;;;;;2.15;100.00;99050.34;10257922;28;20369;-73
2021/01/22 20:58:31;;;;;;;14.07;9.60;;;;;;;2.21;100.00;99068.28;10263463;28;20039;-73
2021/01/22 21:03:33;;;;;;;13.45;9.20;;;;;;;2.27;100.00;99068.91;10298752;28;20043;-73
2021/01/22 21:08:34;;;;;;;10.25;9.18;;;;;;;2.20;100.00;99056.19;10277454;28;20165;-73
2021/01/22 21:13:44;;;;;;;15.45;9.57;;;;;;;2.32;100.00;99071.38;10259381;29;20114;-73
2021/01/22 21:18:45;;;;;;;15.63;10.15;;;;;;;2.34;100.00;99077.38;10241199;29;20055;-74
2021/01/22 21:23:46;;;;;;;13.02;8.77;;;;;;;2.32;100.00;99068.78;10258258;28;20130;-73
2021/01/22 21:28:47;;;;;;;14.45;9.30;;;;;;;2.34;100.00;99068.72;10257009;28;20039;-74
2021/01/22 21:33:49;;;;;;;13.75;10.25;;;;;;;2.47;100.00;99085.56;10258421;29;20047;-74
2021/01/22 21:38:50;;;;;;;13.00;9.57;;;;;;;2.41;100.00;99078.84;10257207;28;20062;-74
2021/01/22 21:43:52;;;;;;;13.75;8.95;;;;;;;2.40;100.00;99068.50;10239434;29;20063;-74
2021/01/22 21:48:53;;;;;;;13.35;8.30;;;;;;;2.32;100.00;99065.31;10266957;28;20498;-74
2021/01/22 21:53:54;;;;;;;14.85;7.78;;;;;;;2.31;100.00;99064.47;10282333;28;20043;-74
2021/01/22 21:58:55;;;;;;;15.27;8.95;;;;;;;2.27;100.00;99063.72;10296419;28;20042;-74
2021/01/22 22:03:56;;;;;;;11.27;8.65;;;;;;;2.14;100.00;99051.22;10270353;28;20051;-74
2021/01/22 22:08:57;;;;;;;13.35;8.00;;;;;;;1.94;100.00;99045.88;10260873;28;20090;-74
2021/01/22 22:13:58;;;;;;;9.95;6.30;;;;;;;1.85;100.00;99050.47;10283042;28;20046;-74
2021/01/22 22:18:59;;;;;;;9.90;6.78;;;;;;;2.01;100.00;99055.16;10254152;28;20047;-74
2021/01/22 22:24:01;;;;;;;10.65;7.45;;;;;;;2.15;100.00;99053.78;10254394;28;20047;-74
2021/01/22 22:29:03;;;;;;;9.82;6.45;;;;;;;1.52;100.00;99007.47;10254855;28;20126;-74
2021/01/22 22:34:04;;;;;;;10.93;8.00;;;;;;;0.69;100.00;98961.75;10238014;28;20050;-74
2021/01/22 22:39:05;;;;;;;12.35;7.55;;;;;;;0.95;100.00;98974.75;10253975;28;20058;-74
2021/01/22 22:44:06;;;;;;;12.02;8.25;;;;;;;0.97;100.00;98980.75;10241556;29;20043;-74
2021/01/22 22:49:07;;;;;;;14.57;8.93;;;;;;;0.94;100.00;98973.06;10237754;29;20054;-74
2021/01/22 22:54:08;;;;;;;13.55;8.80;;;;;;;1.08;100.00;98991.63;10254614;29;20044;-74
2021/01/22 22:59:09;;;;;;;17.45;9.32;;;;;;;1.21;100.00;99001.59;10237271;28;20047;-74
2021/01/22 23:04:10;;;;;;;15.45;8.40;;;;;;;1.14;100.00;99007.00;10254011;28;20058;-74
2021/01/22 23:09:12;;;;;;;22.85;9.77;;;;;;;1.04;100.00;99003.00;10253525;28;20491;-74
2021/01/22 23:14:13;;;;;;;18.60;10.57;;;;;;;1.04;100.00;98997.81;10253709;28;20047;-74
2021/01/22 23:19:14;;;;;;;23.50;17.45;;;;;;;1.08;100.00;99002.00;10236539;29;20488;-74
2021/01/22 23:24:15;;;;;;;18.98;12.77;;;;;;;1.12;100.00;99002.75;10254335;28;20431;-74
2021/01/22 23:29:17;;;;;;;13.85;10.43;;;;;;;1.13;100.00;99009.63;10255188;29;20047;-74
2021/01/22 23:34:18;;;;;;;16.55;10.68;;;;;;;1.08;100.00;99012.38;10255884;29;20054;-74